sensor_id;sensor_type;location;lat;lon;timestamp;temperature;humidity
16321;DHT22;8269;50.990;4.494;2022-12-13T00:00:13;-4.60;99.90
16321;DHT22;8269;50.990;4.494;2022-12-13T00:02:43;-4.70;99.90
16321;DHT22;8269;50.990;4.494;2022-12-13T00:05:10;-4.60;99.90
16321;DHT22;8269;50.990;4.494;2022-12-13T00:07:36;-4.50;99.90
16321;DHT22;8269;50.990;4.494;2022-12-13T00:10:02;-4.50;99.90
16321;DHT22;8269;50.990;4.494;2022-12-13T00:12:27;-4.10;99.90
16321;DHT22;8269;50.990;4.494;2022-12-13T00:14:53;-4.50;99.90
16321;DHT22;8269;50.990;4.494;2022-12-13T00:17:19;-4.50;99.90
16321;DHT22;8269;50.990;4.494;2022-12-13T00:19:46;-4.40;99.90
16321;DHT22;8269;50.990;4.494;2022-12-13T00:22:12;-4.50;99.90
16321;DHT22;8269;50.990;4.494;2022-12-13T00:24:38;-4.40;99.90
16321;DHT22;8269;50.990;4.494;2022-12-13T00:27:03;-4.60;99.90
16321;DHT22;8269;50.990;4.494;2022-12-13T00:29:29;-4.70;99.90
16321;DHT22;8269;50.990;4.494;2022-12-13T00:31:55;-4.60;99.90
16321;DHT22;8269;50.990;4.494;2022-12-13T00:34:21;-4.70;99.90
16321;DHT22;8269;50.990;4.494;2022-12-13T00:36:47;-4.60;99.90
16321;DHT22;8269;50.990;4.494;2022-12-13T00:39:13;-4.70;99.90
16321;DHT22;8269;50.990;4.494;2022-12-13T00:41:41;-4.70;99.90
16321;DHT22;8269;50.990;4.494;2022-12-13T00:44:10;-4.70;99.90
16321;DHT22;8269;50.990;4.494;2022-12-13T00:46:36;-4.80;99.90
16321;DHT22;8269;50.990;4.494;2022-12-13T00:49:03;-4.80;99.90
16321;DHT22;8269;50.990;4.494;2022-12-13T00:51:30;-4.80;99.90
16321;DHT22;8269;50.990;4.494;2022-12-13T00:53:56;-4.90;99.90
16321;DHT22;8269;50.990;4.494;2022-12-13T00:56:24;-4.90;99.90
16321;DHT22;8269;50.990;4.494;2022-12-13T00:58:51;-4.90;99.90
16321;DHT22;8269;50.990;4.494;2022-12-13T01:01:19;-4.90;99.90
16321;DHT22;8269;50.990;4.494;2022-12-13T01:03:45;-4.90;99.90
16321;DHT22;8269;50.990;4.494;2022-12-13T01:06:11;-4.90;99.90
16321;DHT22;8269;50.990;4.494;2022-12-13T01:08:37;-4.90;99.90
16321;DHT22;8269;50.990;4.494;2022-12-13T01:11:04;-4.90;99.90
16321;DHT22;8269;50.990;4.494;2022-12-13T01:13:30;-4.80;99.90
16321;DHT22;8269;50.990;4.494;2022-12-13T01:15:56;-4.90;99.90
16321;DHT22;8269;50.990;4.494;2022-12-13T01:18:22;-4.90;99.90
16321;DHT22;8269;50.990;4.494;2022-12-13T01:21:17;-5.00;99.90
16321;DHT22;8269;50.990;4.494;2022-12-13T01:23:43;-5.10;99.90
16321;DHT22;8269;50.990;4.494;2022-12-13T01:26:12;-5.00;99.90
16321;DHT22;8269;50.990;4.494;2022-12-13T01:28:39;-5.00;99.90
16321;DHT22;8269;50.990;4.494;2022-12-13T01:31:08;-5.00;99.90
16321;DHT22;8269;50.990;4.494;2022-12-13T01:33:35;-5.00;99.90
16321;DHT22;8269;50.990;4.494;2022-12-13T01:36:02;-5.00;99.90
16321;DHT22;8269;50.990;4.494;2022-12-13T01:38:29;-5.00;99.90
16321;DHT22;8269;50.990;4.494;2022-12-13T01:40:55;-4.90;99.90
16321;DHT22;8269;50.990;4.494;2022-12-13T01:46:07;-5.10;99.90
16321;DHT22;8269;50.990;4.494;2022-12-13T01:48:36;-5.10;99.90
16321;DHT22;8269;50.990;4.494;2022-12-13T01:51:06;-5.10;99.90
16321;DHT22;8269;50.990;4.494;2022-12-13T01:53:36;-5.10;99.90
16321;DHT22;8269;50.990;4.494;2022-12-13T01:56:08;-5.10;99.90
16321;DHT22;8269;50.990;4.494;2022-12-13T01:58:35;-5.10;99.90
16321;DHT22;8269;50.990;4.494;2022-12-13T02:01:02;-5.10;99.90
16321;DHT22;8269;50.990;4.494;2022-12-13T02:03:28;-5.10;99.90
16321;DHT22;8269;50.990;4.494;2022-12-13T02:06:04;-5.20;99.90
16321;DHT22;8269;50.990;4.494;2022-12-13T02:08:32;-5.20;99.90
16321;DHT22;8269;50.990;4.494;2022-12-13T02:10:59;-5.20;99.90
16321;DHT22;8269;50.990;4.494;2022-12-13T02:13:26;-5.10;99.90
16321;DHT22;8269;50.990;4.494;2022-12-13T02:21:38;-5.10;99.90
16321;DHT22;8269;50.990;4.494;2022-12-13T02:24:47;-5.10;99.90
16321;DHT22;8269;50.990;4.494;2022-12-13T02:34:53;-5.20;99.90
16321;DHT22;8269;50.990;4.494;2022-12-13T02:40:32;-5.20;99.90
16321;DHT22;8269;50.990;4.494;2022-12-13T02:43:06;-5.00;99.90
16321;DHT22;8269;50.990;4.494;2022-12-13T02:45:39;-5.20;99.90
16321;DHT22;8269;50.990;4.494;2022-12-13T02:48:07;-5.20;99.90
16321;DHT22;8269;50.990;4.494;2022-12-13T02:50:35;-5.30;99.90
16321;DHT22;8269;50.990;4.494;2022-12-13T02:53:01;-5.30;99.90
16321;DHT22;8269;50.990;4.494;2022-12-13T02:55:27;-5.40;99.90
16321;DHT22;8269;50.990;4.494;2022-12-13T02:57:53;-5.40;99.90
16321;DHT22;8269;50.990;4.494;2022-12-13T03:00:26;-5.50;99.90
16321;DHT22;8269;50.990;4.494;2022-12-13T03:06:15;-5.50;99.90
16321;DHT22;8269;50.990;4.494;2022-12-13T03:14:44;-5.40;99.90
16321;DHT22;8269;50.990;4.494;2022-12-13T03:17:13;-5.40;99.90
16321;DHT22;8269;50.990;4.494;2022-12-13T03:19:41;-5.50;99.90
16321;DHT22;8269;50.990;4.494;2022-12-13T03:22:07;-5.40;99.90
16321;DHT22;8269;50.990;4.494;2022-12-13T03:24:32;-5.40;99.90
16321;DHT22;8269;50.990;4.494;2022-12-13T03:26:58;-5.40;99.90
16321;DHT22;8269;50.990;4.494;2022-12-13T03:29:24;-5.40;99.90
16321;DHT22;8269;50.990;4.494;2022-12-13T03:31:51;-5.40;99.90
16321;DHT22;8269;50.990;4.494;2022-12-13T03:34:16;-5.40;99.90
16321;DHT22;8269;50.990;4.494;2022-12-13T03:36:42;-5.30;99.90
16321;DHT22;8269;50.990;4.494;2022-12-13T03:39:07;-4.90;99.90
16321;DHT22;8269;50.990;4.494;2022-12-13T03:41:34;-5.50;99.90
16321;DHT22;8269;50.990;4.494;2022-12-13T03:44:04;-5.20;99.90
16321;DHT22;8269;50.990;4.494;2022-12-13T03:46:30;-5.30;99.90
16321;DHT22;8269;50.990;4.494;2022-12-13T03:48:56;-5.30;99.90
16321;DHT22;8269;50.990;4.494;2022-12-13T03:51:22;-5.40;99.90
16321;DHT22;8269;50.990;4.494;2022-12-13T03:53:47;-5.40;99.90
16321;DHT22;8269;50.990;4.494;2022-12-13T03:56:13;-5.40;99.90
16321;DHT22;8269;50.990;4.494;2022-12-13T03:58:39;-5.50;99.90
16321;DHT22;8269;50.990;4.494;2022-12-13T04:01:09;-5.50;99.90
16321;DHT22;8269;50.990;4.494;2022-12-13T04:03:36;-5.50;99.90
16321;DHT22;8269;50.990;4.494;2022-12-13T04:06:03;-5.50;99.90
16321;DHT22;8269;50.990;4.494;2022-12-13T04:08:29;-5.40;99.90
16321;DHT22;8269;50.990;4.494;2022-12-13T04:10:54;-5.50;99.90
16321;DHT22;8269;50.990;4.494;2022-12-13T04:13:20;-5.50;99.90
16321;DHT22;8269;50.990;4.494;2022-12-13T04:15:57;-5.30;99.90
16321;DHT22;8269;50.990;4.494;2022-12-13T04:18:23;-5.50;99.90
16321;DHT22;8269;50.990;4.494;2022-12-13T04:20:49;-5.60;99.90
16321;DHT22;8269;50.990;4.494;2022-12-13T04:23:14;-5.60;99.90
16321;DHT22;8269;50.990;4.494;2022-12-13T04:25:40;-5.50;99.90
16321;DHT22;8269;50.990;4.494;2022-12-13T04:28:07;-5.50;99.90
16321;DHT22;8269;50.990;4.494;2022-12-13T04:30:33;-5.70;99.90
16321;DHT22;8269;50.990;4.494;2022-12-13T04:32:59;-5.60;99.90
16321;DHT22;8269;50.990;4.494;2022-12-13T04:35:25;-5.70;99.90
16321;DHT22;8269;50.990;4.494;2022-12-13T04:37:51;-5.70;99.90
16321;DHT22;8269;50.990;4.494;2022-12-13T04:40:17;-5.80;99.90
16321;DHT22;8269;50.990;4.494;2022-12-13T04:42:42;-5.80;99.90
16321;DHT22;8269;50.990;4.494;2022-12-13T04:45:09;-5.70;99.90
16321;DHT22;8269;50.990;4.494;2022-12-13T04:47:39;-5.70;99.90
16321;DHT22;8269;50.990;4.494;2022-12-13T04:50:05;-5.80;99.90
16321;DHT22;8269;50.990;4.494;2022-12-13T04:52:30;-5.80;99.90
16321;DHT22;8269;50.990;4.494;2022-12-13T04:54:56;-5.70;99.90
16321;DHT22;8269;50.990;4.494;2022-12-13T04:57:22;-5.80;99.90
16321;DHT22;8269;50.990;4.494;2022-12-13T04:59:47;-5.80;99.90
16321;DHT22;8269;50.990;4.494;2022-12-13T05:02:13;-5.80;99.90
16321;DHT22;8269;50.990;4.494;2022-12-13T05:04:39;-5.80;99.90
16321;DHT22;8269;50.990;4.494;2022-12-13T05:07:05;-5.70;99.90
16321;DHT22;8269;50.990;4.494;2022-12-13T05:09:30;-5.70;99.90
16321;DHT22;8269;50.990;4.494;2022-12-13T05:11:56;-5.70;99.90
16321;DHT22;8269;50.990;4.494;2022-12-13T05:14:22;-5.70;99.90
16321;DHT22;8269;50.990;4.494;2022-12-13T05:16:47;-5.70;99.90
16321;DHT22;8269;50.990;4.494;2022-12-13T05:19:13;-5.70;99.90
16321;DHT22;8269;50.990;4.494;2022-12-13T05:21:38;-5.70;99.90
16321;DHT22;8269;50.990;4.494;2022-12-13T05:24:04;-5.70;99.90
16321;DHT22;8269;50.990;4.494;2022-12-13T05:26:31;-5.90;99.90
16321;DHT22;8269;50.990;4.494;2022-12-13T05:28:57;-5.80;99.90
16321;DHT22;8269;50.990;4.494;2022-12-13T05:31:23;-5.80;99.90
16321;DHT22;8269;50.990;4.494;2022-12-13T05:33:49;-5.90;99.90
16321;DHT22;8269;50.990;4.494;2022-12-13T05:36:14;-6.00;99.90
16321;DHT22;8269;50.990;4.494;2022-12-13T05:38:40;-6.10;99.90
16321;DHT22;8269;50.990;4.494;2022-12-13T05:41:06;-6.20;99.90
16321;DHT22;8269;50.990;4.494;2022-12-13T05:43:31;-6.20;99.90
16321;DHT22;8269;50.990;4.494;2022-12-13T05:45:57;-6.10;99.90
16321;DHT22;8269;50.990;4.494;2022-12-13T05:48:23;-6.10;99.90
16321;DHT22;8269;50.990;4.494;2022-12-13T05:50:49;-6.10;99.90
16321;DHT22;8269;50.990;4.494;2022-12-13T05:53:14;-6.10;99.90
16321;DHT22;8269;50.990;4.494;2022-12-13T05:55:41;-6.20;99.90
16321;DHT22;8269;50.990;4.494;2022-12-13T05:58:06;-6.00;99.90
16321;DHT22;8269;50.990;4.494;2022-12-13T06:00:32;-6.00;99.90
16321;DHT22;8269;50.990;4.494;2022-12-13T06:02:59;-5.90;99.90
16321;DHT22;8269;50.990;4.494;2022-12-13T06:05:25;-6.00;99.90
16321;DHT22;8269;50.990;4.494;2022-12-13T06:07:53;-6.10;99.90
16321;DHT22;8269;50.990;4.494;2022-12-13T06:10:20;-6.10;99.90
16321;DHT22;8269;50.990;4.494;2022-12-13T06:12:45;-6.10;99.90
16321;DHT22;8269;50.990;4.494;2022-12-13T06:15:11;-6.20;99.90
16321;DHT22;8269;50.990;4.494;2022-12-13T06:17:37;-6.20;99.90
16321;DHT22;8269;50.990;4.494;2022-12-13T06:20:04;-6.20;99.90
16321;DHT22;8269;50.990;4.494;2022-12-13T06:22:30;-6.20;99.90
16321;DHT22;8269;50.990;4.494;2022-12-13T06:24:55;-6.20;99.90
16321;DHT22;8269;50.990;4.494;2022-12-13T06:27:21;-6.20;99.90
16321;DHT22;8269;50.990;4.494;2022-12-13T06:29:47;-6.20;99.90
16321;DHT22;8269;50.990;4.494;2022-12-13T06:32:12;-6.20;99.90
16321;DHT22;8269;50.990;4.494;2022-12-13T06:34:38;-6.20;99.90
16321;DHT22;8269;50.990;4.494;2022-12-13T06:37:10;-6.20;99.90
16321;DHT22;8269;50.990;4.494;2022-12-13T06:39:37;-6.20;99.90
16321;DHT22;8269;50.990;4.494;2022-12-13T06:42:05;-6.30;99.90
16321;DHT22;8269;50.990;4.494;2022-12-13T06:44:31;-6.20;99.90
16321;DHT22;8269;50.990;4.494;2022-12-13T06:46:57;-6.20;99.90
16321;DHT22;8269;50.990;4.494;2022-12-13T06:49:24;-6.20;99.90
16321;DHT22;8269;50.990;4.494;2022-12-13T06:51:49;-6.20;99.90
16321;DHT22;8269;50.990;4.494;2022-12-13T06:54:15;-6.20;99.90
16321;DHT22;8269;50.990;4.494;2022-12-13T06:56:41;-6.10;99.90
16321;DHT22;8269;50.990;4.494;2022-12-13T06:59:06;-6.20;99.90
16321;DHT22;8269;50.990;4.494;2022-12-13T07:01:35;-6.10;99.90
16321;DHT22;8269;50.990;4.494;2022-12-13T07:04:02;-6.20;99.90
16321;DHT22;8269;50.990;4.494;2022-12-13T07:06:27;-6.20;99.90
16321;DHT22;8269;50.990;4.494;2022-12-13T07:08:55;-6.20;99.90
16321;DHT22;8269;50.990;4.494;2022-12-13T07:11:25;-6.20;99.90
16321;DHT22;8269;50.990;4.494;2022-12-13T07:13:51;-6.20;99.90
16321;DHT22;8269;50.990;4.494;2022-12-13T07:16:18;-6.20;99.90
16321;DHT22;8269;50.990;4.494;2022-12-13T07:18:43;-6.20;99.90
16321;DHT22;8269;50.990;4.494;2022-12-13T07:21:11;-6.10;99.90
16321;DHT22;8269;50.990;4.494;2022-12-13T07:23:38;-6.10;99.90
16321;DHT22;8269;50.990;4.494;2022-12-13T07:26:04;-6.10;99.90
16321;DHT22;8269;50.990;4.494;2022-12-13T07:28:34;-6.10;99.90
16321;DHT22;8269;50.990;4.494;2022-12-13T07:31:02;-6.20;99.90
16321;DHT22;8269;50.990;4.494;2022-12-13T07:33:28;-5.90;99.90
16321;DHT22;8269;50.990;4.494;2022-12-13T07:36:10;-6.10;99.90
16321;DHT22;8269;50.990;4.494;2022-12-13T07:38:36;-6.00;99.90
16321;DHT22;8269;50.990;4.494;2022-12-13T07:41:03;-6.20;99.90
16321;DHT22;8269;50.990;4.494;2022-12-13T07:43:30;-6.20;99.90
16321;DHT22;8269;50.990;4.494;2022-12-13T07:46:04;-6.20;99.90
16321;DHT22;8269;50.990;4.494;2022-12-13T07:48:31;-6.30;99.90
16321;DHT22;8269;50.990;4.494;2022-12-13T07:51:03;-6.20;99.90
16321;DHT22;8269;50.990;4.494;2022-12-13T07:53:29;-6.20;99.90
16321;DHT22;8269;50.990;4.494;2022-12-13T07:55:59;-5.70;99.90
16321;DHT22;8269;50.990;4.494;2022-12-13T07:58:28;-6.20;99.90
16321;DHT22;8269;50.990;4.494;2022-12-13T08:03:25;-6.10;99.90
16321;DHT22;8269;50.990;4.494;2022-12-13T08:06:07;-6.20;99.90
16321;DHT22;8269;50.990;4.494;2022-12-13T08:11:03;-5.90;99.90
16321;DHT22;8269;50.990;4.494;2022-12-13T08:13:29;-5.30;99.90
16321;DHT22;8269;50.990;4.494;2022-12-13T08:16:02;-5.70;99.90
16321;DHT22;8269;50.990;4.494;2022-12-13T08:18:30;-5.50;99.90
16321;DHT22;8269;50.990;4.494;2022-12-13T08:21:03;-5.50;99.90
16321;DHT22;8269;50.990;4.494;2022-12-13T08:23:33;-5.40;99.90
16321;DHT22;8269;50.990;4.494;2022-12-13T08:26:00;-5.40;99.90
16321;DHT22;8269;50.990;4.494;2022-12-13T08:28:27;-5.50;99.90
16321;DHT22;8269;50.990;4.494;2022-12-13T08:30:53;-5.00;99.90
16321;DHT22;8269;50.990;4.494;2022-12-13T08:33:19;-5.50;99.90
16321;DHT22;8269;50.990;4.494;2022-12-13T08:35:45;-5.50;99.90
16321;DHT22;8269;50.990;4.494;2022-12-13T08:38:11;-5.30;99.90
16321;DHT22;8269;50.990;4.494;2022-12-13T08:40:37;-5.00;99.90
16321;DHT22;8269;50.990;4.494;2022-12-13T08:43:03;-5.50;99.90
16321;DHT22;8269;50.990;4.494;2022-12-13T08:45:29;-5.60;99.90
16321;DHT22;8269;50.990;4.494;2022-12-13T08:47:58;-5.30;99.90
16321;DHT22;8269;50.990;4.494;2022-12-13T08:50:27;-5.30;99.90
16321;DHT22;8269;50.990;4.494;2022-12-13T08:52:53;-5.20;99.90
16321;DHT22;8269;50.990;4.494;2022-12-13T08:55:19;-5.40;99.90
16321;DHT22;8269;50.990;4.494;2022-12-13T08:57:46;-5.40;99.90
16321;DHT22;8269;50.990;4.494;2022-12-13T09:00:14;-5.30;99.90
16321;DHT22;8269;50.990;4.494;2022-12-13T09:02:40;-5.30;99.90
16321;DHT22;8269;50.990;4.494;2022-12-13T09:05:07;-5.40;99.90
16321;DHT22;8269;50.990;4.494;2022-12-13T09:07:33;-5.20;99.90
16321;DHT22;8269;50.990;4.494;2022-12-13T09:10:06;-5.30;99.90
16321;DHT22;8269;50.990;4.494;2022-12-13T09:12:32;-4.90;99.90
16321;DHT22;8269;50.990;4.494;2022-12-13T09:14:57;-4.70;99.90
16321;DHT22;8269;50.990;4.494;2022-12-13T09:17:23;-4.70;99.90
16321;DHT22;8269;50.990;4.494;2022-12-13T09:19:48;-4.60;99.90
16321;DHT22;8269;50.990;4.494;2022-12-13T09:22:14;-4.60;99.90
16321;DHT22;8269;50.990;4.494;2022-12-13T09:24:41;-4.50;99.90
16321;DHT22;8269;50.990;4.494;2022-12-13T09:27:07;-4.50;99.90
16321;DHT22;8269;50.990;4.494;2022-12-13T09:29:34;-4.50;99.90
16321;DHT22;8269;50.990;4.494;2022-12-13T09:32:00;-4.40;99.90
16321;DHT22;8269;50.990;4.494;2022-12-13T09:34:26;-4.40;99.90
16321;DHT22;8269;50.990;4.494;2022-12-13T09:36:52;-4.30;99.90
16321;DHT22;8269;50.990;4.494;2022-12-13T09:39:17;-4.20;99.90
16321;DHT22;8269;50.990;4.494;2022-12-13T09:41:45;-4.10;99.90
16321;DHT22;8269;50.990;4.494;2022-12-13T09:44:25;-4.00;99.90
16321;DHT22;8269;50.990;4.494;2022-12-13T09:46:52;-3.90;99.90
16321;DHT22;8269;50.990;4.494;2022-12-13T09:49:34;-3.90;99.90
16321;DHT22;8269;50.990;4.494;2022-12-13T09:52:04;-3.80;99.90
16321;DHT22;8269;50.990;4.494;2022-12-13T09:54:31;-3.90;99.90
16321;DHT22;8269;50.990;4.494;2022-12-13T09:56:58;-3.90;99.90
16321;DHT22;8269;50.990;4.494;2022-12-13T09:59:32;-3.90;99.90
16321;DHT22;8269;50.990;4.494;2022-12-13T10:02:15;-3.90;99.90
16321;DHT22;8269;50.990;4.494;2022-12-13T10:04:43;-3.90;99.90
16321;DHT22;8269;50.990;4.494;2022-12-13T10:07:16;-3.80;99.90
16321;DHT22;8269;50.990;4.494;2022-12-13T10:09:43;-3.80;99.90
16321;DHT22;8269;50.990;4.494;2022-12-13T10:12:12;-3.80;99.90
16321;DHT22;8269;50.990;4.494;2022-12-13T10:14:42;-3.80;99.90
16321;DHT22;8269;50.990;4.494;2022-12-13T10:17:14;-3.70;99.90
16321;DHT22;8269;50.990;4.494;2022-12-13T10:19:45;-3.60;99.90
16321;DHT22;8269;50.990;4.494;2022-12-13T10:22:13;-3.60;99.90
16321;DHT22;8269;50.990;4.494;2022-12-13T10:27:27;-3.40;99.90
16321;DHT22;8269;50.990;4.494;2022-12-13T10:30:04;-3.30;99.90
16321;DHT22;8269;50.990;4.494;2022-12-13T10:32:31;-3.30;99.90
16321;DHT22;8269;50.990;4.494;2022-12-13T10:37:42;-3.30;99.90
16321;DHT22;8269;50.990;4.494;2022-12-13T10:40:22;-3.20;99.90
16321;DHT22;8269;50.990;4.494;2022-12-13T10:43:24;-3.10;99.90
16321;DHT22;8269;50.990;4.494;2022-12-13T10:51:05;-2.90;99.90
16321;DHT22;8269;50.990;4.494;2022-12-13T10:53:41;-2.80;99.90
16321;DHT22;8269;50.990;4.494;2022-12-13T10:56:09;-2.80;99.90
16321;DHT22;8269;50.990;4.494;2022-12-13T10:58:41;-2.80;99.90
16321;DHT22;8269;50.990;4.494;2022-12-13T11:01:27;-2.70;99.90
16321;DHT22;8269;50.990;4.494;2022-12-13T11:03:59;-2.60;99.90
16321;DHT22;8269;50.990;4.494;2022-12-13T11:06:26;-2.60;99.90
16321;DHT22;8269;50.990;4.494;2022-12-13T11:08:54;-2.60;99.90
16321;DHT22;8269;50.990;4.494;2022-12-13T11:11:28;-2.60;99.90
16321;DHT22;8269;50.990;4.494;2022-12-13T11:13:56;-2.30;99.90
16321;DHT22;8269;50.990;4.494;2022-12-13T11:16:32;-2.50;99.90
16321;DHT22;8269;50.990;4.494;2022-12-13T11:19:02;-2.40;99.90
16321;DHT22;8269;50.990;4.494;2022-12-13T11:21:30;-2.30;99.90
16321;DHT22;8269;50.990;4.494;2022-12-13T11:24:00;-2.30;99.90
16321;DHT22;8269;50.990;4.494;2022-12-13T11:26:26;-2.30;99.90
16321;DHT22;8269;50.990;4.494;2022-12-13T11:40:16;-1.90;99.90
16321;DHT22;8269;50.990;4.494;2022-12-13T11:42:58;-1.80;99.90
16321;DHT22;8269;50.990;4.494;2022-12-13T11:45:30;-1.70;99.90
16321;DHT22;8269;50.990;4.494;2022-12-13T11:48:18;-1.70;99.90
16321;DHT22;8269;50.990;4.494;2022-12-13T11:50:47;-1.60;99.90
16321;DHT22;8269;50.990;4.494;2022-12-13T11:56:06;-1.50;99.90
16321;DHT22;8269;50.990;4.494;2022-12-13T11:58:47;-1.50;99.90
16321;DHT22;8269;50.990;4.494;2022-12-13T12:01:23;-1.40;99.90
16321;DHT22;8269;50.990;4.494;2022-12-13T12:06:59;-1.30;99.90
16321;DHT22;8269;50.990;4.494;2022-12-13T12:09:27;-1.30;99.90
16321;DHT22;8269;50.990;4.494;2022-12-13T12:14:52;-1.20;99.90
16321;DHT22;8269;50.990;4.494;2022-12-13T12:17:23;-1.20;99.90
16321;DHT22;8269;50.990;4.494;2022-12-13T12:19:52;-1.10;99.90
16321;DHT22;8269;50.990;4.494;2022-12-13T12:22:36;-1.10;99.90
16321;DHT22;8269;50.990;4.494;2022-12-13T12:25:32;-1.10;99.90
16321;DHT22;8269;50.990;4.494;2022-12-13T12:40:04;-0.90;99.90
16321;DHT22;8269;50.990;4.494;2022-12-13T12:43:10;-0.90;99.90
16321;DHT22;8269;50.990;4.494;2022-12-13T12:46:04;-0.80;99.90
16321;DHT22;8269;50.990;4.494;2022-12-13T12:51:33;-0.80;99.90
16321;DHT22;8269;50.990;4.494;2022-12-13T12:57:30;-0.80;99.90
16321;DHT22;8269;50.990;4.494;2022-12-13T13:00:07;-0.80;99.90
16321;DHT22;8269;50.990;4.494;2022-12-13T13:03:15;-0.70;99.90
16321;DHT22;8269;50.990;4.494;2022-12-13T13:05:57;-0.70;99.90
16321;DHT22;8269;50.990;4.494;2022-12-13T13:11:00;-0.70;99.90
16321;DHT22;8269;50.990;4.494;2022-12-13T13:13:58;-0.70;99.90
16321;DHT22;8269;50.990;4.494;2022-12-13T13:16:32;-0.60;99.90
16321;DHT22;8269;50.990;4.494;2022-12-13T13:19:38;-0.60;99.90
16321;DHT22;8269;50.990;4.494;2022-12-13T13:27:41;-0.50;99.90
16321;DHT22;8269;50.990;4.494;2022-12-13T13:32:45;-0.50;99.90
16321;DHT22;8269;50.990;4.494;2022-12-13T13:35:45;-0.50;99.90
16321;DHT22;8269;50.990;4.494;2022-12-13T13:40:47;-0.50;99.90
16321;DHT22;8269;50.990;4.494;2022-12-13T13:43:15;-0.50;99.90
16321;DHT22;8269;50.990;4.494;2022-12-13T13:48:57;-0.50;99.90
16321;DHT22;8269;50.990;4.494;2022-12-13T13:57:50;-0.50;99.90
16321;DHT22;8269;50.990;4.494;2022-12-13T14:03:30;-0.50;99.90
16321;DHT22;8269;50.990;4.494;2022-12-13T14:20:42;-0.50;99.90
16321;DHT22;8269;50.990;4.494;2022-12-13T14:31:38;-0.60;99.90
16321;DHT22;8269;50.990;4.494;2022-12-13T14:34:05;-0.70;99.90
16321;DHT22;8269;50.990;4.494;2022-12-13T14:36:34;-0.60;99.90
16321;DHT22;8269;50.990;4.494;2022-12-13T14:39:12;-1.10;99.90
16321;DHT22;8269;50.990;4.494;2022-12-13T14:41:50;-0.80;99.90
16321;DHT22;8269;50.990;4.494;2022-12-13T14:44:30;-1.10;99.90
16321;DHT22;8269;50.990;4.494;2022-12-13T14:47:05;-0.90;99.90
16321;DHT22;8269;50.990;4.494;2022-12-13T14:49:34;-0.90;99.90
16321;DHT22;8269;50.990;4.494;2022-12-13T14:52:19;-0.90;99.90
16321;DHT22;8269;50.990;4.494;2022-12-13T14:54:59;-1.00;99.90
16321;DHT22;8269;50.990;4.494;2022-12-13T14:57:30;-1.00;99.90
16321;DHT22;8269;50.990;4.494;2022-12-13T14:59:58;-0.90;99.90
16321;DHT22;8269;50.990;4.494;2022-12-13T15:02:27;-1.30;99.90
16321;DHT22;8269;50.990;4.494;2022-12-13T15:04:53;-1.10;99.90
16321;DHT22;8269;50.990;4.494;2022-12-13T15:07:50;-1.10;99.90
16321;DHT22;8269;50.990;4.494;2022-12-13T15:10:21;-1.20;99.90
16321;DHT22;8269;50.990;4.494;2022-12-13T15:12:51;-1.20;99.90
16321;DHT22;8269;50.990;4.494;2022-12-13T15:15:25;-1.30;99.90
16321;DHT22;8269;50.990;4.494;2022-12-13T15:18:17;-1.30;99.90
16321;DHT22;8269;50.990;4.494;2022-12-13T15:20:46;-1.30;99.90
16321;DHT22;8269;50.990;4.494;2022-12-13T15:23:45;-1.40;99.90
16321;DHT22;8269;50.990;4.494;2022-12-13T15:28:36;-1.50;99.90
16321;DHT22;8269;50.990;4.494;2022-12-13T15:31:04;-1.40;99.90
16321;DHT22;8269;50.990;4.494;2022-12-13T15:33:31;-1.50;99.90
16321;DHT22;8269;50.990;4.494;2022-12-13T15:36:04;-1.80;99.90
16321;DHT22;8269;50.990;4.494;2022-12-13T15:38:32;-1.60;99.90
16321;DHT22;8269;50.990;4.494;2022-12-13T15:40:59;-1.60;99.90
16321;DHT22;8269;50.990;4.494;2022-12-13T15:43:34;-1.70;99.90
16321;DHT22;8269;50.990;4.494;2022-12-13T15:46:01;-1.90;99.90
16321;DHT22;8269;50.990;4.494;2022-12-13T15:48:31;-1.70;99.90
16321;DHT22;8269;50.990;4.494;2022-12-13T15:51:24;-1.60;99.90
16321;DHT22;8269;50.990;4.494;2022-12-13T15:56:36;-1.80;99.90
16321;DHT22;8269;50.990;4.494;2022-12-13T15:59:03;-1.80;99.90
16321;DHT22;8269;50.990;4.494;2022-12-13T16:01:35;-1.80;99.90
16321;DHT22;8269;50.990;4.494;2022-12-13T16:04:04;-1.90;99.90
16321;DHT22;8269;50.990;4.494;2022-12-13T16:06:32;-1.90;99.90
16321;DHT22;8269;50.990;4.494;2022-12-13T16:09:03;-2.10;99.90
16321;DHT22;8269;50.990;4.494;2022-12-13T16:11:34;-1.70;99.90
16321;DHT22;8269;50.990;4.494;2022-12-13T16:16:50;-2.00;99.90
16321;DHT22;8269;50.990;4.494;2022-12-13T16:19:19;-2.00;99.90
16321;DHT22;8269;50.990;4.494;2022-12-13T16:21:45;-2.00;99.90
16321;DHT22;8269;50.990;4.494;2022-12-13T16:24:11;-2.00;99.90
16321;DHT22;8269;50.990;4.494;2022-12-13T16:26:36;-2.00;99.90
16321;DHT22;8269;50.990;4.494;2022-12-13T16:29:09;-2.00;99.90
16321;DHT22;8269;50.990;4.494;2022-12-13T16:31:36;-2.00;99.90
16321;DHT22;8269;50.990;4.494;2022-12-13T16:34:03;-2.10;99.90
16321;DHT22;8269;50.990;4.494;2022-12-13T16:36:29;-2.00;99.90
16321;DHT22;8269;50.990;4.494;2022-12-13T16:38:55;-2.00;99.90
16321;DHT22;8269;50.990;4.494;2022-12-13T16:41:20;-2.10;99.90
16321;DHT22;8269;50.990;4.494;2022-12-13T16:44:01;-2.00;99.90
16321;DHT22;8269;50.990;4.494;2022-12-13T16:46:28;-2.00;99.90
16321;DHT22;8269;50.990;4.494;2022-12-13T16:48:54;-2.00;99.90
16321;DHT22;8269;50.990;4.494;2022-12-13T16:51:20;-2.00;99.90
16321;DHT22;8269;50.990;4.494;2022-12-13T16:53:46;-2.00;99.90
16321;DHT22;8269;50.990;4.494;2022-12-13T16:56:13;-2.00;99.90
16321;DHT22;8269;50.990;4.494;2022-12-13T16:58:41;-2.10;99.90
16321;DHT22;8269;50.990;4.494;2022-12-13T17:01:13;-2.10;99.90
16321;DHT22;8269;50.990;4.494;2022-12-13T17:03:40;-2.10;99.90
16321;DHT22;8269;50.990;4.494;2022-12-13T17:06:08;-2.10;99.90
16321;DHT22;8269;50.990;4.494;2022-12-13T17:08:34;-2.00;99.90
16321;DHT22;8269;50.990;4.494;2022-12-13T17:11:00;-2.10;99.90
16321;DHT22;8269;50.990;4.494;2022-12-13T17:13:27;-2.10;99.90
16321;DHT22;8269;50.990;4.494;2022-12-13T17:15:53;-2.10;99.90
16321;DHT22;8269;50.990;4.494;2022-12-13T17:18:19;-2.10;99.90
16321;DHT22;8269;50.990;4.494;2022-12-13T17:20:45;-2.00;99.90
16321;DHT22;8269;50.990;4.494;2022-12-13T17:23:12;-2.10;99.90
16321;DHT22;8269;50.990;4.494;2022-12-13T17:25:38;-2.10;99.90
16321;DHT22;8269;50.990;4.494;2022-12-13T17:28:06;-2.10;99.90
16321;DHT22;8269;50.990;4.494;2022-12-13T17:30:33;-2.10;99.90
16321;DHT22;8269;50.990;4.494;2022-12-13T17:33:01;-2.10;99.90
16321;DHT22;8269;50.990;4.494;2022-12-13T17:35:26;-2.10;99.90
16321;DHT22;8269;50.990;4.494;2022-12-13T17:37:52;-2.10;99.90
16321;DHT22;8269;50.990;4.494;2022-12-13T17:40:18;-2.10;99.90
16321;DHT22;8269;50.990;4.494;2022-12-13T17:42:46;-2.10;99.90
16321;DHT22;8269;50.990;4.494;2022-12-13T17:45:12;-2.10;99.90
16321;DHT22;8269;50.990;4.494;2022-12-13T17:47:38;-2.10;99.90
16321;DHT22;8269;50.990;4.494;2022-12-13T17:50:07;-2.10;99.90
16321;DHT22;8269;50.990;4.494;2022-12-13T17:52:34;-2.20;99.90
16321;DHT22;8269;50.990;4.494;2022-12-13T17:55:01;-2.20;99.90
16321;DHT22;8269;50.990;4.494;2022-12-13T17:57:29;-2.20;99.90
16321;DHT22;8269;50.990;4.494;2022-12-13T17:59:59;-2.20;99.90
16321;DHT22;8269;50.990;4.494;2022-12-13T18:02:25;-2.20;99.90
16321;DHT22;8269;50.990;4.494;2022-12-13T18:04:51;-2.20;99.90
16321;DHT22;8269;50.990;4.494;2022-12-13T18:07:17;-2.30;99.90
16321;DHT22;8269;50.990;4.494;2022-12-13T18:09:43;-2.30;99.90
16321;DHT22;8269;50.990;4.494;2022-12-13T18:12:08;-2.10;99.90
16321;DHT22;8269;50.990;4.494;2022-12-13T18:14:34;-2.40;99.90
16321;DHT22;8269;50.990;4.494;2022-12-13T18:17:00;-2.30;99.90